createdAt,value
2023-01-11T00:00:59.401Z,100373.31
2023-01-11T00:03:53.257Z,100373.66
2023-01-11T00:06:41.325Z,100369.50
2023-01-11T00:09:12.101Z,100365.09
2023-01-11T00:11:42.714Z,100362.59
2023-01-11T00:14:17.729Z,100364.34
2023-01-11T00:16:48.286Z,100365.25
2023-01-11T00:19:18.715Z,100369.50
2023-01-11T00:21:51.807Z,100363.94
2023-01-11T00:24:32.028Z,100343.91
2023-01-11T00:27:04.995Z,100342.31
2023-01-11T00:29:38.170Z,100329.47
2023-01-11T00:32:08.939Z,100337.88
2023-01-11T00:34:39.435Z,100337.88
2023-01-11T00:37:13.685Z,100335.06
2023-01-11T00:39:47.803Z,100329.22
2023-01-11T00:42:30.758Z,100327.91
2023-01-11T00:45:16.896Z,100330.22
2023-01-11T00:48:05.022Z,100327.91
2023-01-11T00:50:38.879Z,100331.59
2023-01-11T00:53:11.845Z,100320.13
2023-01-11T00:55:42.845Z,100325.44
2023-01-11T00:58:13.585Z,100325.75
2023-01-11T01:00:46.716Z,100326.47
2023-01-11T01:03:17.134Z,100309.84
2023-01-11T01:05:47.754Z,100313.03
2023-01-11T01:08:18.235Z,100313.66
2023-01-11T01:10:48.672Z,100298.72
2023-01-11T01:13:31.471Z,100319.84
2023-01-11T01:16:04.584Z,100313.06
2023-01-11T01:18:37.660Z,100307.91
2023-01-11T01:21:08.229Z,100316.31
2023-01-11T01:23:38.691Z,100306.75
2023-01-11T01:26:10.066Z,100305.13
2023-01-11T01:28:40.634Z,100303.94
2023-01-11T01:31:17.075Z,100296.56
2023-01-11T01:33:47.523Z,100292.44
2023-01-11T01:36:19.776Z,100284.22
2023-01-11T01:38:50.203Z,100282.13
2023-01-11T01:41:20.782Z,100283.00
2023-01-11T01:43:54.489Z,100279.63
2023-01-11T01:46:30.961Z,100276.25
2023-01-11T01:49:04.854Z,100261.78
2023-01-11T01:51:41.284Z,100261.78
2023-01-11T01:54:15.359Z,100257.38
2023-01-11T01:56:53.256Z,100262.06
2023-01-11T01:59:28.984Z,100263.69
2023-01-11T02:02:03.774Z,100232.53
2023-01-11T02:04:37.278Z,100258.94
2023-01-11T02:07:19.384Z,100245.72
2023-01-11T02:09:55.713Z,100244.81
2023-01-11T02:12:30.188Z,100251.44
2023-01-11T02:15:03.005Z,100241.59
2023-01-11T02:17:36.284Z,100224.50
2023-01-11T02:20:43.216Z,100230.84
2023-01-11T02:23:52.063Z,100227.59
2023-01-11T02:26:52.506Z,100225.09
2023-01-11T02:29:33.953Z,100212.00
2023-01-11T02:32:14.767Z,100219.50
2023-01-11T02:34:53.333Z,100211.09
2023-01-11T02:37:31.867Z,100196.09
2023-01-11T02:40:10.339Z,100198.59
2023-01-11T02:42:54.847Z,100161.59
2023-01-11T02:45:40.170Z,100192.88
2023-01-11T02:48:19.225Z,100199.81
2023-01-11T02:51:01.187Z,100196.41
2023-01-11T02:53:38.880Z,100189.50
2023-01-11T02:56:13.580Z,100185.97
2023-01-11T02:58:48.684Z,100187.56
2023-01-11T03:01:23.588Z,100191.28
2023-01-11T03:03:58.964Z,100195.53
2023-01-11T03:06:33.749Z,100182.31
2023-01-11T03:09:29.394Z,100191.13
2023-01-11T03:12:27.639Z,100187.03
2023-01-11T03:15:16.476Z,100185.84
2023-01-11T03:18:03.022Z,100169.31
2023-01-11T03:20:36.100Z,100183.47
2023-01-11T03:23:15.504Z,100185.25
2023-01-11T03:25:54.907Z,100184.38
2023-01-11T03:28:35.332Z,100192.03
2023-01-11T03:31:14.975Z,100178.03
2023-01-11T03:33:57.169Z,100183.50
2023-01-11T03:36:34.967Z,100172.72
2023-01-11T03:39:19.397Z,100177.59
2023-01-11T03:41:52.956Z,100182.03
2023-01-11T03:44:26.301Z,100176.69
2023-01-11T03:47:01.495Z,100165.22
2023-01-11T03:49:38.591Z,100148.41
2023-01-11T03:52:16.123Z,100158.88
2023-01-11T03:54:47.259Z,100145.91
2023-01-11T03:57:25.068Z,100153.13
2023-01-11T03:59:56.256Z,100147.53
2023-01-11T04:02:29.406Z,100148.41
2023-01-11T04:05:02.660Z,100149.44
2023-01-11T04:07:33.307Z,100148.41
2023-01-11T04:10:03.955Z,100144.88
2023-01-11T04:12:34.441Z,100152.09
2023-01-11T04:15:05.396Z,100137.34
2023-01-11T04:17:35.902Z,100139.69
2023-01-11T04:20:16.644Z,100141.75
2023-01-11T04:22:47.120Z,100136.63
2023-01-11T04:25:17.669Z,100144.41
2023-01-11T04:27:48.013Z,100149.28
2023-01-11T04:30:18.845Z,100151.34
2023-01-11T04:32:49.366Z,100150.75
2023-01-11T04:35:22.664Z,100147.38
2023-01-11T04:37:56.494Z,100157.53
2023-01-11T04:40:29.312Z,100147.38
2023-01-11T04:42:57.345Z,100148.84
2023-01-11T04:45:27.852Z,100150.19
2023-01-11T04:48:00.813Z,100156.97
2023-01-11T04:50:34.026Z,100147.22
2023-01-11T04:53:04.454Z,100147.22
2023-01-11T04:55:35.029Z,100135.13
2023-01-11T04:58:06.996Z,100141.19
2023-01-11T05:00:41.407Z,100133.97
2023-01-11T05:03:32.978Z,100132.50
2023-01-11T05:06:06.640Z,100129.09
2023-01-11T05:08:37.410Z,100136.00
2023-01-11T05:11:09.874Z,100120.22
2023-01-11T05:13:46.650Z,100087.34
2023-01-11T05:16:20.546Z,100112.41
2023-01-11T05:18:53.363Z,100112.25
2023-01-11T05:21:28.376Z,100113.88
2023-01-11T05:23:58.838Z,100105.91
2023-01-11T05:26:40.686Z,100105.31
2023-01-11T05:29:14.081Z,100117.16
2023-01-11T05:31:45.178Z,100113.44
2023-01-11T05:34:17.515Z,100114.19
2023-01-11T05:36:53.225Z,100114.06
2023-01-11T05:39:24.209Z,100111.25
2023-01-11T05:41:54.697Z,100108.91
2023-01-11T05:44:37.882Z,100114.94
2023-01-11T05:47:08.455Z,100121.56
2023-01-11T05:49:41.196Z,100112.44
2023-01-11T05:52:14.261Z,100109.44
2023-01-11T05:54:44.722Z,100099.28
2023-01-11T05:57:15.151Z,100107.69
2023-01-11T05:59:45.656Z,100109.63
2023-01-11T06:02:16.241Z,100106.22
2023-01-11T06:04:46.918Z,100097.66
2023-01-11T06:07:20.223Z,100107.97
2023-01-11T06:09:51.006Z,100110.03
2023-01-11T06:12:23.728Z,100115.03
2023-01-11T06:14:54.310Z,100123.31
2023-01-11T06:17:24.792Z,100110.03
2023-01-11T06:19:55.437Z,100115.03
2023-01-11T06:22:28.599Z,100123.31
2023-01-11T06:25:02.975Z,100112.44
2023-01-11T06:27:33.440Z,100112.44
2023-01-11T06:30:03.894Z,100110.94
2023-01-11T06:32:34.474Z,100105.91
2023-01-11T06:35:04.946Z,100109.44
2023-01-11T06:37:38.027Z,100099.16
2023-01-11T06:40:10.053Z,100115.94
2023-01-11T06:42:40.652Z,100108.59
2023-01-11T06:45:12.811Z,100111.97
2023-01-11T06:47:43.525Z,100119.66
2023-01-11T06:50:14.533Z,100105.63
2023-01-11T06:52:55.778Z,100097.22
2023-01-11T06:55:28.036Z,100102.97
2023-01-11T06:57:59.375Z,100099.41
2023-01-11T07:00:30.108Z,100102.38
2023-01-11T07:03:04.871Z,100113.44
2023-01-11T07:05:36.777Z,100102.81
2023-01-11T07:08:09.898Z,100105.47
2023-01-11T07:10:40.401Z,100113.13
2023-01-11T07:13:11.168Z,100114.59
2023-01-11T07:15:41.749Z,100110.03
2023-01-11T07:18:12.862Z,100120.38
2023-01-11T07:20:43.432Z,100134.78
2023-01-11T07:23:17.063Z,100129.19
2023-01-11T07:25:47.599Z,100131.84
2023-01-11T07:28:20.156Z,100128.59
2023-01-11T07:30:58.796Z,100128.28
2023-01-11T07:33:30.919Z,100109.13
2023-01-11T07:36:05.424Z,100125.94
2023-01-11T07:38:38.631Z,100098.56
2023-01-11T07:41:29.468Z,100121.94
2023-01-11T07:43:57.659Z,100126.81
2023-01-11T07:46:30.132Z,100125.06
2023-01-11T07:49:00.646Z,100125.63
2023-01-11T07:51:31.115Z,100076.44
2023-01-11T07:54:04.242Z,100127.53
2023-01-11T07:56:35.090Z,100129.75
2023-01-11T07:59:05.649Z,100105.88
2023-01-11T08:01:36.163Z,100135.94
2023-01-11T08:04:11.999Z,100125.03
2023-01-11T08:06:43.512Z,100119.28
2023-01-11T08:09:16.772Z,100122.19
2023-01-11T08:12:11.858Z,100111.44
2023-01-11T08:14:42.171Z,100107.31
2023-01-11T08:17:15.209Z,100102.31
2023-01-11T08:19:46.460Z,100097.28
2023-01-11T08:22:17.583Z,100113.06
2023-01-11T08:24:51.243Z,100127.19
2023-01-11T08:27:47.039Z,100115.56
2023-01-11T08:30:20.885Z,100130.28
2023-01-11T08:32:51.613Z,100128.78
2023-01-11T08:35:22.112Z,100138.97
2023-01-11T08:37:52.712Z,100125.78
2023-01-11T08:40:25.977Z,100129.63
2023-01-11T08:42:58.491Z,100130.03
2023-01-11T08:45:29.161Z,100120.31
2023-01-11T08:48:01.965Z,100128.53
2023-01-11T08:50:32.559Z,100130.72
2023-01-11T08:53:03.126Z,100133.34
2023-01-11T08:55:36.675Z,100133.66
2023-01-11T08:58:07.181Z,100119.78
2023-01-11T09:00:37.712Z,100141.56
2023-01-11T09:03:08.599Z,100153.41
2023-01-11T09:05:39.508Z,100147.75
2023-01-11T09:08:11.446Z,100148.78
2023-01-11T09:10:44.586Z,100159.13
2023-01-11T09:13:15.069Z,100136.69
2023-01-11T09:15:46.811Z,100139.75
2023-01-11T09:18:18.144Z,100113.56
2023-01-11T09:20:48.655Z,100162.88
2023-01-11T09:23:19.265Z,100158.84
2023-01-11T09:25:52.482Z,100161.06
2023-01-11T09:28:22.934Z,100164.84
2023-01-11T09:30:56.226Z,100171.16
2023-01-11T09:33:26.728Z,100140.81
2023-01-11T09:35:58.896Z,100159.03
2023-01-11T09:38:30.741Z,100169.97
2023-01-11T09:41:16.842Z,100152.22
2023-01-11T09:43:55.053Z,100162.09
2023-01-11T09:46:30.462Z,100155.16
2023-01-11T09:49:03.562Z,100156.94
2023-01-11T09:51:39.656Z,100167.97
2023-01-11T09:54:14.512Z,100154.22
2023-01-11T09:56:53.905Z,100147.50
2023-01-11T09:59:31.149Z,100156.31
2023-01-11T10:02:10.337Z,100157.97
2023-01-11T10:05:06.339Z,100154.56
2023-01-11T10:18:28.616Z,100168.34
2023-01-11T10:18:37.596Z,100175.13
2023-01-11T10:20:01.446Z,100165.84
2023-01-11T10:22:37.013Z,100125.94
2023-01-11T10:25:21.862Z,100174.25
2023-01-11T10:27:59.061Z,100185.19
2023-01-11T10:30:49.670Z,100177.78
2023-01-11T10:33:46.410Z,100163.00
2023-01-11T10:36:41.732Z,100161.06
2023-01-11T10:39:35.875Z,100159.59
2023-01-11T10:42:12.841Z,100152.16
2023-01-11T10:44:48.814Z,100131.13
2023-01-11T10:47:33.996Z,100149.31
2023-01-11T10:50:19.303Z,100147.81
2023-01-11T10:52:59.097Z,100156.84
2023-01-11T10:55:43.313Z,100154.63
2023-01-11T10:58:25.121Z,100152.84
2023-01-11T11:01:08.670Z,100144.03
2023-01-11T11:03:55.949Z,100148.28
2023-01-11T11:06:43.424Z,100157.63
2023-01-11T11:09:23.932Z,100164.13
2023-01-11T11:12:01.170Z,100151.78
2023-01-11T11:14:40.456Z,100152.25
2023-01-11T11:17:22.783Z,100158.56
2023-01-11T11:19:56.186Z,100165.34
2023-01-11T11:22:26.885Z,100161.50
2023-01-11T11:25:06.742Z,100159.09
2023-01-11T11:27:43.456Z,100158.34
2023-01-11T11:30:15.132Z,100165.88
2023-01-11T11:32:55.693Z,100191.78
2023-01-11T11:35:44.078Z,100200.06
2023-01-11T11:38:25.819Z,100199.38
2023-01-11T11:41:00.996Z,100189.63
2023-01-11T11:43:31.623Z,100192.00
2023-01-11T11:46:03.800Z,100192.59
2023-01-11T11:48:36.267Z,100201.03
2023-01-11T11:51:13.294Z,100205.28
2023-01-11T11:53:46.201Z,100199.53
2023-01-11T11:56:26.163Z,100207.81
2023-01-11T11:58:58.846Z,100204.13
2023-01-11T12:01:33.253Z,100215.69
2023-01-11T12:04:07.253Z,100217.03
2023-01-11T12:06:44.205Z,100214.22
2023-01-11T12:09:33.721Z,100200.50
2023-01-11T12:12:05.612Z,100193.59
2023-01-11T12:14:37.473Z,100191.09
2023-01-11T12:17:25.683Z,100190.78
2023-01-11T12:19:56.199Z,100182.78
2023-01-11T12:22:30.872Z,100188.72
2023-01-11T12:25:25.764Z,100194.13
2023-01-11T12:28:00.339Z,100194.44
2023-01-11T12:30:37.472Z,100187.00
2023-01-11T12:33:29.704Z,100195.84
2023-01-11T12:36:07.251Z,100190.22
2023-01-11T12:38:55.609Z,100190.47
2023-01-11T12:42:10.195Z,100183.94
2023-01-11T12:45:04.574Z,100197.69
2023-01-11T12:48:10.294Z,100199.59
2023-01-11T12:50:54.706Z,100204.00
2023-01-11T12:53:46.420Z,100154.44
2023-01-11T12:56:35.016Z,100203.25
2023-01-11T12:59:22.844Z,100211.56
2023-01-11T13:02:01.918Z,100222.03
2023-01-11T13:04:57.801Z,100212.22
2023-01-11T13:07:42.253Z,100219.47
2023-01-11T13:10:29.324Z,100231.44
2023-01-11T13:13:12.652Z,100232.00
2023-01-11T13:15:53.761Z,100228.97
2023-01-11T13:18:32.883Z,100228.50
2023-01-11T13:21:21.040Z,100221.97
2023-01-11T13:23:57.977Z,100222.72
2023-01-11T13:26:31.937Z,100224.47
2023-01-11T13:29:08.237Z,100217.56
2023-01-11T13:31:39.132Z,100222.59
2023-01-11T13:34:27.940Z,100211.09
2023-01-11T13:37:02.415Z,100220.69
2023-01-11T13:39:40.413Z,100199.53
2023-01-11T13:42:17.460Z,100234.63
2023-01-11T13:44:55.374Z,100231.69
2023-01-11T13:47:33.437Z,100235.44
2023-01-11T13:50:07.844Z,100232.94
2023-01-11T13:52:52.078Z,100232.03
2023-01-11T13:55:27.000Z,100255.81
2023-01-11T13:58:02.851Z,100255.09
2023-01-11T14:00:44.021Z,100267.19
2023-01-11T14:03:23.745Z,100272.22
2023-01-11T14:06:05.825Z,100277.97
2023-01-11T14:09:03.303Z,100283.13
2023-01-11T14:11:44.684Z,100286.69
2023-01-11T14:14:30.383Z,100294.34
2023-01-11T14:17:29.905Z,100305.91
2023-01-11T14:20:12.063Z,100310.06
2023-01-11T14:22:50.598Z,100315.69
2023-01-11T14:25:25.498Z,100324.25
2023-01-11T14:28:08.858Z,100331.53
2023-01-11T14:31:18.032Z,100321.38
2023-01-11T14:34:12.415Z,100331.41
2023-01-11T14:37:15.128Z,100348.88
2023-01-11T14:40:28.327Z,100354.34
2023-01-11T14:43:33.533Z,100333.84
2023-01-11T14:46:31.521Z,100364.28
2023-01-11T14:49:14.278Z,100360.31
2023-01-11T14:51:59.348Z,100357.81
2023-01-11T14:54:33.002Z,100343.38
2023-01-11T14:57:06.738Z,100363.75
2023-01-11T14:59:40.426Z,100367.50
2023-01-11T15:02:30.908Z,100362.78
2023-01-11T15:05:29.661Z,100368.13
2023-01-11T15:08:28.337Z,100360.03
2023-01-11T15:11:00.673Z,100365.38
2023-01-11T15:13:33.900Z,100370.56
2023-01-11T15:16:25.292Z,100370.25
2023-01-11T15:18:56.879Z,100376.34
2023-01-11T15:21:30.509Z,100373.53
2023-01-11T15:24:01.695Z,100384.16
2023-01-11T15:26:32.292Z,100379.63
2023-01-11T15:29:05.103Z,100377.84
2023-01-11T15:31:51.962Z,100384.06
2023-01-11T15:34:28.518Z,100388.50
2023-01-11T15:37:27.997Z,100400.78
2023-01-11T15:40:06.331Z,100404.44
2023-01-11T15:42:58.064Z,100393.09
2023-01-11T15:46:11.555Z,100400.31
2023-01-11T15:48:54.347Z,100411.56
2023-01-11T15:51:47.185Z,100404.59
2023-01-11T15:54:53.513Z,100411.72
2023-01-11T15:57:51.029Z,100415.69
2023-01-11T16:00:46.069Z,100429.25
2023-01-11T16:04:00.829Z,100436.34
2023-01-11T16:06:43.469Z,100388.66
2023-01-11T16:09:46.553Z,100433.97
2023-01-11T16:12:36.409Z,100432.06
2023-01-11T16:15:19.988Z,100439.88
2023-01-11T16:17:51.410Z,100440.31
2023-01-11T16:20:26.589Z,100434.84
2023-01-11T16:23:00.029Z,100437.16
2023-01-11T16:25:35.701Z,100445.28
2023-01-11T16:28:07.741Z,100425.47
2023-01-11T16:30:38.808Z,100449.69
2023-01-11T16:33:23.485Z,100449.22
2023-01-11T16:36:05.368Z,100449.19
2023-01-11T16:38:43.268Z,100450.31
2023-01-11T16:41:18.594Z,100447.53
2023-01-11T16:43:54.457Z,100446.47
2023-01-11T16:47:08.375Z,100447.22
2023-01-11T16:49:38.833Z,100453.72
2023-01-11T16:52:47.219Z,100449.41
2023-01-11T16:55:36.630Z,100452.66
2023-01-11T16:58:25.707Z,100463.00
2023-01-11T17:01:02.394Z,100416.91
2023-01-11T17:03:44.027Z,100473.56
2023-01-11T17:06:21.942Z,100475.94
2023-01-11T17:08:54.427Z,100473.13
2023-01-11T17:11:38.094Z,100445.91
2023-01-11T17:14:36.418Z,100475.78
2023-01-11T17:17:12.387Z,100483.59
2023-01-11T17:19:47.144Z,100481.22
2023-01-11T17:22:21.976Z,100457.75
2023-01-11T17:24:57.477Z,100480.31
2023-01-11T17:27:33.381Z,100481.97
2023-01-11T17:30:08.503Z,100488.75
2023-01-11T17:32:41.468Z,100490.34
2023-01-11T17:35:19.584Z,100492.59
2023-01-11T17:37:52.508Z,100498.50
2023-01-11T17:40:26.046Z,100496.31
2023-01-11T17:43:11.904Z,100488.78
2023-01-11T17:45:45.593Z,100489.22
2023-01-11T17:48:20.546Z,100493.03
2023-01-11T17:50:54.661Z,100490.06
2023-01-11T17:53:32.381Z,100498.13
2023-01-11T17:56:04.789Z,100489.56
2023-01-11T17:58:37.169Z,100486.91
2023-01-11T18:01:23.287Z,100504.78
2023-01-11T18:03:57.150Z,100507.28
2023-01-11T18:06:34.864Z,100502.72
2023-01-11T18:09:07.786Z,100504.88
2023-01-11T18:11:42.120Z,100499.16
2023-01-11T18:14:22.470Z,100493.91
2023-01-11T18:17:04.215Z,100492.13
2023-01-11T18:19:37.217Z,100489.72
2023-01-11T18:22:31.821Z,100489.50
2023-01-11T18:25:04.599Z,100491.13
2023-01-11T18:27:38.284Z,100490.97
2023-01-11T18:30:11.485Z,100501.41
2023-01-11T18:32:47.010Z,100505.09
2023-01-11T18:35:20.230Z,100498.31
2023-01-11T18:37:50.923Z,100491.81
2023-01-11T18:40:25.591Z,100486.81
2023-01-11T18:42:57.757Z,100494.16
2023-01-11T18:45:29.583Z,100496.53
2023-01-11T18:48:04.037Z,100503.34
2023-01-11T18:50:42.681Z,100482.94
2023-01-11T18:53:14.735Z,100507.72
2023-01-11T18:55:48.535Z,100502.69
2023-01-11T18:58:20.386Z,100504.56
2023-01-11T19:01:15.282Z,100501.75
2023-01-11T19:03:49.850Z,100506.19
2023-01-11T19:06:23.069Z,100503.84
2023-01-11T19:08:54.607Z,100504.44
2023-01-11T19:14:36.161Z,100508.84
2023-01-11T19:17:33.264Z,100512.13
2023-01-11T19:20:25.616Z,100503.63
2023-01-11T19:23:03.388Z,100460.94
2023-01-11T19:25:44.194Z,100416.47
2023-01-11T19:28:17.605Z,100497.72
2023-01-11T19:30:58.792Z,100435.81
2023-01-11T19:33:48.792Z,100459.00
2023-01-11T19:36:56.991Z,100465.13
2023-01-11T19:39:57.980Z,100469.13
2023-01-11T19:42:50.246Z,100469.31
2023-01-11T19:45:34.797Z,100476.13
2023-01-11T19:48:27.816Z,100486.03
2023-01-11T19:51:19.488Z,100460.28
2023-01-11T19:54:18.388Z,100432.66
2023-01-11T20:00:06.117Z,100348.16
2023-01-11T20:02:55.518Z,100365.41
2023-01-11T20:05:39.778Z,100429.63
2023-01-11T20:12:05.274Z,100447.84
2023-01-11T20:15:17.726Z,100470.44
2023-01-11T20:18:51.759Z,100433.97
2023-01-11T20:21:54.339Z,100464.56
2023-01-11T20:24:58.773Z,100371.94
2023-01-11T20:27:55.626Z,100430.13
2023-01-11T20:30:46.758Z,100464.69
2023-01-11T20:33:49.029Z,100425.94
2023-01-11T20:36:27.787Z,100446.72
2023-01-11T20:39:13.995Z,100415.97
2023-01-11T20:42:10.840Z,100217.91
2023-01-11T20:45:04.406Z,100376.09
2023-01-11T20:47:55.023Z,100223.25
2023-01-11T20:50:44.778Z,100432.91
2023-01-11T20:53:22.555Z,100428.47
2023-01-11T20:56:03.958Z,100380.72
2023-01-11T20:58:56.212Z,100451.16
2023-01-11T21:01:49.291Z,100415.72
2023-01-11T21:04:33.550Z,100350.59
2023-01-11T21:07:19.653Z,100427.56
2023-01-11T21:10:14.955Z,100427.00
2023-01-11T21:15:23.793Z,100425.19
2023-01-11T21:18:10.459Z,100418.44
2023-01-11T21:20:53.706Z,100414.13
2023-01-11T21:23:27.175Z,100395.41
2023-01-11T21:25:57.764Z,100391.16
2023-01-11T21:28:28.278Z,100393.09
2023-01-11T21:31:05.411Z,100392.09
2023-01-11T21:33:39.473Z,100390.63
2023-01-11T21:36:13.497Z,100365.19
2023-01-11T21:38:44.060Z,100393.28
2023-01-11T21:41:16.133Z,100389.75
2023-01-11T21:43:47.633Z,100382.16
2023-01-11T21:46:18.108Z,100370.19
2023-01-11T21:48:53.451Z,100377.88
2023-01-11T21:51:23.910Z,100374.66
2023-01-11T21:53:54.554Z,100367.72
2023-01-11T21:56:30.107Z,100378.22
2023-01-11T21:59:00.529Z,100361.66
2023-01-11T22:01:31.060Z,100363.75
2023-01-11T22:04:08.074Z,100368.63
2023-01-11T22:06:39.953Z,100361.22
2023-01-11T22:09:14.916Z,100359.31
2023-01-11T22:11:45.803Z,100330.09
2023-01-11T22:14:16.332Z,100354.75
2023-01-11T22:16:47.590Z,100352.53
2023-01-11T22:19:20.960Z,100349.13
2023-01-11T22:21:51.784Z,100345.88
2023-01-11T22:24:22.539Z,100348.13
2023-01-11T22:26:53.016Z,100323.16
2023-01-11T22:29:23.703Z,100347.50
2023-01-11T22:32:01.210Z,100346.47
2023-01-11T22:34:34.333Z,100353.69
2023-01-11T22:37:06.574Z,100353.09
2023-01-11T22:39:44.387Z,100348.22
2023-01-11T22:42:15.051Z,100337.72
2023-01-11T22:44:45.443Z,100344.81
2023-01-11T22:47:15.896Z,100353.66
2023-01-11T22:49:54.063Z,100336.53
2023-01-11T22:52:24.906Z,100357.50
2023-01-11T22:54:55.422Z,100348.94
2023-01-11T22:57:32.373Z,100336.41
2023-01-11T23:00:04.685Z,100349.97
2023-01-11T23:02:35.169Z,100335.66
2023-01-11T23:05:09.083Z,100344.66
2023-01-11T23:07:39.539Z,100328.28
2023-01-11T23:10:12.216Z,100328.28
2023-01-11T23:12:55.088Z,100293.63
2023-01-11T23:15:25.556Z,100318.97
2023-01-11T23:17:55.975Z,100309.81
2023-01-11T23:20:29.068Z,100303.06
2023-01-11T23:22:59.883Z,100312.19
2023-01-11T23:25:30.430Z,100296.09
2023-01-11T23:28:01.890Z,100309.53
2023-01-11T23:30:32.755Z,100300.84
2023-01-11T23:33:05.468Z,100311.59
2023-01-11T23:35:39.337Z,100335.97
2023-01-11T23:38:10.493Z,100298.50
2023-01-11T23:41:01.537Z,100309.41
2023-01-11T23:43:30.960Z,100312.97
2023-01-11T23:46:27.134Z,100301.47
2023-01-11T23:48:59.028Z,100299.97
2023-01-11T23:51:32.150Z,100302.66
2023-01-11T23:54:04.371Z,100300.44
2023-01-11T23:56:36.198Z,100285.97
2023-01-11T23:59:07.918Z,100287.03
